sensor_id;sensor_type;location;lat;lon;timestamp;temperature;humidity
3792;DHT22;1911;53.768;11.474;2023-02-08T01:41:37;-1.60;99.90
3792;DHT22;1911;53.768;11.474;2023-02-08T01:47:12;-1.50;99.90
3792;DHT22;1911;53.768;11.474;2023-02-08T01:49:37;-1.50;99.90
3792;DHT22;1911;53.768;11.474;2023-02-08T01:52:18;-1.60;99.90
3792;DHT22;1911;53.768;11.474;2023-02-08T01:55:04;-1.60;99.90
3792;DHT22;1911;53.768;11.474;2023-02-08T01:57:31;-1.60;99.90
3792;DHT22;1911;53.768;11.474;2023-02-08T02:00:04;-1.70;99.90
3792;DHT22;1911;53.768;11.474;2023-02-08T02:02:35;-1.60;99.90
3792;DHT22;1911;53.768;11.474;2023-02-08T02:05:01;-1.60;99.90
3792;DHT22;1911;53.768;11.474;2023-02-08T02:07:28;-1.60;99.90
3792;DHT22;1911;53.768;11.474;2023-02-08T02:10:07;-1.60;99.90
3792;DHT22;1911;53.768;11.474;2023-02-08T02:12:35;-1.60;99.90
3792;DHT22;1911;53.768;11.474;2023-02-08T02:15:02;-1.70;99.90
3792;DHT22;1911;53.768;11.474;2023-02-08T02:17:29;-1.70;99.90
3792;DHT22;1911;53.768;11.474;2023-02-08T02:20:08;-1.70;99.90
3792;DHT22;1911;53.768;11.474;2023-02-08T02:28:27;-1.80;99.90
3792;DHT22;1911;53.768;11.474;2023-02-08T02:31:27;-1.90;99.90
3792;DHT22;1911;53.768;11.474;2023-02-08T02:34:01;-2.00;99.90
3792;DHT22;1911;53.768;11.474;2023-02-08T02:42:47;-2.10;99.90
3792;DHT22;1911;53.768;11.474;2023-02-08T02:45:48;-2.10;99.90
3792;DHT22;1911;53.768;11.474;2023-02-08T02:51:25;-2.20;99.90
3792;DHT22;1911;53.768;11.474;2023-02-08T02:56:23;-2.10;99.90
3792;DHT22;1911;53.768;11.474;2023-02-08T02:59:01;-2.20;99.90
3792;DHT22;1911;53.768;11.474;2023-02-08T03:01:28;-2.20;99.90
3792;DHT22;1911;53.768;11.474;2023-02-08T03:03:54;-2.30;99.90
3792;DHT22;1911;53.768;11.474;2023-02-08T03:06:40;-2.30;99.90
3792;DHT22;1911;53.768;11.474;2023-02-08T03:11:42;-2.30;99.90
3792;DHT22;1911;53.768;11.474;2023-02-08T03:22:19;-2.30;99.90
3792;DHT22;1911;53.768;11.474;2023-02-08T03:24:58;-2.30;99.90
3792;DHT22;1911;53.768;11.474;2023-02-08T03:27:31;-2.30;99.90
3792;DHT22;1911;53.768;11.474;2023-02-08T03:32:53;-2.30;99.90
3792;DHT22;1911;53.768;11.474;2023-02-08T03:35:33;-2.30;99.90
3792;DHT22;1911;53.768;11.474;2023-02-08T03:38:14;-2.30;99.90
3792;DHT22;1911;53.768;11.474;2023-02-08T03:40:45;-2.30;99.90
3792;DHT22;1911;53.768;11.474;2023-02-08T03:43:39;-2.30;99.90
3792;DHT22;1911;53.768;11.474;2023-02-08T03:46:17;-2.30;99.90
3792;DHT22;1911;53.768;11.474;2023-02-08T03:48:48;-2.20;99.90
3792;DHT22;1911;53.768;11.474;2023-02-08T03:51:17;-2.30;99.90
3792;DHT22;1911;53.768;11.474;2023-02-08T03:53:45;-2.30;99.90
3792;DHT22;1911;53.768;11.474;2023-02-08T03:56:37;-2.30;99.90
3792;DHT22;1911;53.768;11.474;2023-02-08T03:59:05;-2.30;99.90
3792;DHT22;1911;53.768;11.474;2023-02-08T04:01:37;-2.30;99.90
3792;DHT22;1911;53.768;11.474;2023-02-08T04:04:06;-2.30;99.90
3792;DHT22;1911;53.768;11.474;2023-02-08T04:06:32;-2.40;99.90
3792;DHT22;1911;53.768;11.474;2023-02-08T04:08:57;-2.50;99.90
3792;DHT22;1911;53.768;11.474;2023-02-08T04:11:23;-2.50;99.90
3792;DHT22;1911;53.768;11.474;2023-02-08T04:13:48;-2.50;99.90
3792;DHT22;1911;53.768;11.474;2023-02-08T04:16:14;-2.50;99.90
3792;DHT22;1911;53.768;11.474;2023-02-08T04:18:39;-2.50;99.90
3792;DHT22;1911;53.768;11.474;2023-02-08T04:21:05;-2.50;99.90
3792;DHT22;1911;53.768;11.474;2023-02-08T04:23:31;-2.50;99.90
3792;DHT22;1911;53.768;11.474;2023-02-08T04:25:56;-2.50;99.90
3792;DHT22;1911;53.768;11.474;2023-02-08T04:28:22;-2.50;99.90
3792;DHT22;1911;53.768;11.474;2023-02-08T04:30:48;-2.50;99.90
3792;DHT22;1911;53.768;11.474;2023-02-08T04:33:13;-2.50;99.90
3792;DHT22;1911;53.768;11.474;2023-02-08T04:35:40;-2.50;99.90
3792;DHT22;1911;53.768;11.474;2023-02-08T04:38:06;-2.60;99.90
3792;DHT22;1911;53.768;11.474;2023-02-08T04:40:32;-2.60;99.90
3792;DHT22;1911;53.768;11.474;2023-02-08T04:42:58;-2.60;99.90
3792;DHT22;1911;53.768;11.474;2023-02-08T04:45:23;-2.60;99.90
3792;DHT22;1911;53.768;11.474;2023-02-08T04:47:51;-2.60;99.90
3792;DHT22;1911;53.768;11.474;2023-02-08T04:50:17;-2.60;99.90
3792;DHT22;1911;53.768;11.474;2023-02-08T04:52:42;-2.70;99.90
3792;DHT22;1911;53.768;11.474;2023-02-08T04:55:08;-2.60;99.90
3792;DHT22;1911;53.768;11.474;2023-02-08T04:57:33;-2.60;99.90
3792;DHT22;1911;53.768;11.474;2023-02-08T04:59:59;-2.60;99.90
3792;DHT22;1911;53.768;11.474;2023-02-08T05:02:24;-2.60;99.90
3792;DHT22;1911;53.768;11.474;2023-02-08T05:04:50;-2.60;99.90
3792;DHT22;1911;53.768;11.474;2023-02-08T05:07:15;-2.50;99.90
3792;DHT22;1911;53.768;11.474;2023-02-08T05:09:41;-2.50;99.90
3792;DHT22;1911;53.768;11.474;2023-02-08T05:12:07;-2.40;99.90
3792;DHT22;1911;53.768;11.474;2023-02-08T05:14:32;-2.40;99.90
3792;DHT22;1911;53.768;11.474;2023-02-08T05:16:58;-2.40;99.90
3792;DHT22;1911;53.768;11.474;2023-02-08T05:19:23;-2.40;99.90
3792;DHT22;1911;53.768;11.474;2023-02-08T05:21:49;-2.40;99.90
3792;DHT22;1911;53.768;11.474;2023-02-08T05:24:16;-2.30;99.90
3792;DHT22;1911;53.768;11.474;2023-02-08T05:26:41;-2.30;99.90
3792;DHT22;1911;53.768;11.474;2023-02-08T05:29:07;-2.30;99.90
3792;DHT22;1911;53.768;11.474;2023-02-08T05:31:32;-2.30;99.90
3792;DHT22;1911;53.768;11.474;2023-02-08T05:33:58;-2.30;99.90
3792;DHT22;1911;53.768;11.474;2023-02-08T05:36:24;-2.40;99.90
3792;DHT22;1911;53.768;11.474;2023-02-08T05:38:50;-2.40;99.90
3792;DHT22;1911;53.768;11.474;2023-02-08T05:41:16;-2.30;99.90
3792;DHT22;1911;53.768;11.474;2023-02-08T05:43:41;-2.30;99.90
3792;DHT22;1911;53.768;11.474;2023-02-08T05:46:10;-2.30;99.90
3792;DHT22;1911;53.768;11.474;2023-02-08T05:48:35;-2.30;99.90
3792;DHT22;1911;53.768;11.474;2023-02-08T05:51:01;-2.30;99.90
3792;DHT22;1911;53.768;11.474;2023-02-08T05:53:26;-2.20;99.90
3792;DHT22;1911;53.768;11.474;2023-02-08T05:55:52;-2.20;99.90
3792;DHT22;1911;53.768;11.474;2023-02-08T05:58:18;-2.20;99.90
3792;DHT22;1911;53.768;11.474;2023-02-08T06:00:43;-2.30;99.90
3792;DHT22;1911;53.768;11.474;2023-02-08T06:03:09;-2.30;99.90
3792;DHT22;1911;53.768;11.474;2023-02-08T06:05:37;-2.30;99.90
3792;DHT22;1911;53.768;11.474;2023-02-08T06:08:03;-2.40;99.90
3792;DHT22;1911;53.768;11.474;2023-02-08T06:10:29;-2.40;99.90
3792;DHT22;1911;53.768;11.474;2023-02-08T06:12:55;-2.40;99.90
3792;DHT22;1911;53.768;11.474;2023-02-08T06:15:20;-2.40;99.90
3792;DHT22;1911;53.768;11.474;2023-02-08T06:17:47;-2.50;99.90
3792;DHT22;1911;53.768;11.474;2023-02-08T06:20:13;-2.50;99.90
3792;DHT22;1911;53.768;11.474;2023-02-08T06:22:38;-2.50;99.90
3792;DHT22;1911;53.768;11.474;2023-02-08T06:25:04;-2.50;99.90
3792;DHT22;1911;53.768;11.474;2023-02-08T06:27:30;-2.50;99.90
3792;DHT22;1911;53.768;11.474;2023-02-08T06:29:55;-2.50;99.90
3792;DHT22;1911;53.768;11.474;2023-02-08T06:32:21;-2.50;99.90
3792;DHT22;1911;53.768;11.474;2023-02-08T06:34:46;-2.50;99.90
3792;DHT22;1911;53.768;11.474;2023-02-08T06:37:15;-2.50;99.90
3792;DHT22;1911;53.768;11.474;2023-02-08T06:39:41;-2.50;99.90
3792;DHT22;1911;53.768;11.474;2023-02-08T06:42:09;-2.50;99.90
3792;DHT22;1911;53.768;11.474;2023-02-08T06:44:35;-2.50;99.90
3792;DHT22;1911;53.768;11.474;2023-02-08T06:47:01;-2.60;99.90
3792;DHT22;1911;53.768;11.474;2023-02-08T06:49:27;-2.50;99.90
3792;DHT22;1911;53.768;11.474;2023-02-08T06:51:52;-2.50;99.90
3792;DHT22;1911;53.768;11.474;2023-02-08T06:54:18;-2.60;99.90
3792;DHT22;1911;53.768;11.474;2023-02-08T06:56:44;-2.60;99.90
3792;DHT22;1911;53.768;11.474;2023-02-08T06:59:10;-2.60;99.90
3792;DHT22;1911;53.768;11.474;2023-02-08T07:01:35;-2.60;99.90
3792;DHT22;1911;53.768;11.474;2023-02-08T07:04:01;-2.60;99.90
3792;DHT22;1911;53.768;11.474;2023-02-08T07:06:27;-2.50;99.90
3792;DHT22;1911;53.768;11.474;2023-02-08T07:08:52;-2.50;99.90
3792;DHT22;1911;53.768;11.474;2023-02-08T07:11:19;-2.50;99.90
3792;DHT22;1911;53.768;11.474;2023-02-08T07:13:49;-2.40;99.90
3792;DHT22;1911;53.768;11.474;2023-02-08T07:16:16;-2.40;99.90
3792;DHT22;1911;53.768;11.474;2023-02-08T07:18:41;-2.30;99.90
3792;DHT22;1911;53.768;11.474;2023-02-08T07:21:07;-2.20;99.90
3792;DHT22;1911;53.768;11.474;2023-02-08T07:23:36;-2.20;99.90
3792;DHT22;1911;53.768;11.474;2023-02-08T07:26:09;-2.20;99.90
3792;DHT22;1911;53.768;11.474;2023-02-08T07:28:37;-2.10;99.90
3792;DHT22;1911;53.768;11.474;2023-02-08T07:31:08;-1.90;99.90
3792;DHT22;1911;53.768;11.474;2023-02-08T07:33:34;-1.70;99.90
3792;DHT22;1911;53.768;11.474;2023-02-08T07:36:00;-1.70;99.90
3792;DHT22;1911;53.768;11.474;2023-02-08T08:46:32;-0.50;99.90
3792;DHT22;1911;53.768;11.474;2023-02-08T08:52:57;-0.40;99.90
3792;DHT22;1911;53.768;11.474;2023-02-08T09:16:33;0.20;99.90
3792;DHT22;1911;53.768;11.474;2023-02-08T09:19:06;0.50;99.90
3792;DHT22;1911;53.768;11.474;2023-02-08T09:21:32;0.30;99.90
3792;DHT22;1911;53.768;11.474;2023-02-08T09:24:00;0.20;99.90
3792;DHT22;1911;53.768;11.474;2023-02-08T09:26:26;0.20;99.90
3792;DHT22;1911;53.768;11.474;2023-02-08T09:28:52;0.20;99.90
3792;DHT22;1911;53.768;11.474;2023-02-08T09:31:27;0.30;99.90
3792;DHT22;1911;53.768;11.474;2023-02-08T09:33:55;0.50;99.90
3792;DHT22;1911;53.768;11.474;2023-02-08T09:36:22;0.60;99.90
3792;DHT22;1911;53.768;11.474;2023-02-08T09:38:48;0.90;99.90
3792;DHT22;1911;53.768;11.474;2023-02-08T09:41:23;0.80;99.90
3792;DHT22;1911;53.768;11.474;2023-02-08T09:46:49;0.80;99.90
3792;DHT22;1911;53.768;11.474;2023-02-08T09:49:42;1.00;99.90
3792;DHT22;1911;53.768;11.474;2023-02-08T09:52:21;1.20;99.90
3792;DHT22;1911;53.768;11.474;2023-02-08T09:54:55;1.50;99.90
3792;DHT22;1911;53.768;11.474;2023-02-08T09:57:28;1.60;99.90
3792;DHT22;1911;53.768;11.474;2023-02-08T09:59:59;1.50;99.90
3792;DHT22;1911;53.768;11.474;2023-02-08T10:02:29;1.50;99.90
3792;DHT22;1911;53.768;11.474;2023-02-08T10:05:13;1.50;99.90
3792;DHT22;1911;53.768;11.474;2023-02-08T10:07:40;1.50;99.90
3792;DHT22;1911;53.768;11.474;2023-02-08T10:10:18;1.40;99.90
3792;DHT22;1911;53.768;11.474;2023-02-08T10:16:13;1.40;99.90
3792;DHT22;1911;53.768;11.474;2023-02-08T10:18:39;1.40;99.90
3792;DHT22;1911;53.768;11.474;2023-02-08T10:21:18;1.40;99.90
3792;DHT22;1911;53.768;11.474;2023-02-08T10:24:26;1.40;99.90
3792;DHT22;1911;53.768;11.474;2023-02-08T10:27:15;1.30;99.90
3792;DHT22;1911;53.768;11.474;2023-02-08T10:35:03;1.60;99.90
3792;DHT22;1911;53.768;11.474;2023-02-08T10:37:32;1.60;99.90
3792;DHT22;1911;53.768;11.474;2023-02-08T10:40:12;1.70;99.90
3792;DHT22;1911;53.768;11.474;2023-02-08T10:42:39;1.80;99.90
3792;DHT22;1911;53.768;11.474;2023-02-08T10:45:29;1.80;99.90
3792;DHT22;1911;53.768;11.474;2023-02-08T10:48:04;1.90;99.90
3792;DHT22;1911;53.768;11.474;2023-02-08T10:50:42;2.00;99.90
3792;DHT22;1911;53.768;11.474;2023-02-08T10:53:15;2.20;99.90
3792;DHT22;1911;53.768;11.474;2023-02-08T10:55:43;2.20;99.90
3792;DHT22;1911;53.768;11.474;2023-02-08T10:58:15;2.30;99.90
3792;DHT22;1911;53.768;11.474;2023-02-08T11:00:42;2.30;99.90
3792;DHT22;1911;53.768;11.474;2023-02-08T11:03:21;2.30;99.90
3792;DHT22;1911;53.768;11.474;2023-02-08T11:05:48;2.30;99.90
3792;DHT22;1911;53.768;11.474;2023-02-08T11:08:19;2.30;99.90
3792;DHT22;1911;53.768;11.474;2023-02-08T11:11:05;2.30;99.90
3792;DHT22;1911;53.768;11.474;2023-02-08T11:13:45;2.30;99.90
3792;DHT22;1911;53.768;11.474;2023-02-08T11:16:24;2.40;99.90
3792;DHT22;1911;53.768;11.474;2023-02-08T11:18:55;2.50;99.90
3792;DHT22;1911;53.768;11.474;2023-02-08T11:21:32;2.50;99.90
3792;DHT22;1911;53.768;11.474;2023-02-08T11:24:01;2.50;99.90
3792;DHT22;1911;53.768;11.474;2023-02-08T11:26:39;2.70;99.90
3792;DHT22;1911;53.768;11.474;2023-02-08T11:29:16;2.70;99.90
3792;DHT22;1911;53.768;11.474;2023-02-08T11:31:58;2.70;99.90
3792;DHT22;1911;53.768;11.474;2023-02-08T11:37:02;2.80;99.90
3792;DHT22;1911;53.768;11.474;2023-02-08T11:39:54;2.80;99.90
3792;DHT22;1911;53.768;11.474;2023-02-08T11:42:36;2.90;99.90
3792;DHT22;1911;53.768;11.474;2023-02-08T11:45:05;3.00;99.90
3792;DHT22;1911;53.768;11.474;2023-02-08T11:47:36;3.00;99.90
3792;DHT22;1911;53.768;11.474;2023-02-08T11:50:04;3.10;99.90
3792;DHT22;1911;53.768;11.474;2023-02-08T12:00:22;3.20;99.90
3792;DHT22;1911;53.768;11.474;2023-02-08T12:02:49;3.30;99.90
3792;DHT22;1911;53.768;11.474;2023-02-08T12:05:18;3.20;99.90
3792;DHT22;1911;53.768;11.474;2023-02-08T12:16:50;3.40;99.90
3792;DHT22;1911;53.768;11.474;2023-02-08T12:19:44;3.50;99.90
3792;DHT22;1911;53.768;11.474;2023-02-08T12:22:23;3.60;99.90
3792;DHT22;1911;53.768;11.474;2023-02-08T12:30:20;3.70;99.90
3792;DHT22;1911;53.768;11.474;2023-02-08T12:33:14;3.60;99.90
3792;DHT22;1911;53.768;11.474;2023-02-08T12:36:05;3.40;99.90
3792;DHT22;1911;53.768;11.474;2023-02-08T12:47:47;3.20;99.90
3792;DHT22;1911;53.768;11.474;2023-02-08T12:53:01;3.30;99.90
3792;DHT22;1911;53.768;11.474;2023-02-08T12:55:30;3.30;99.90
3792;DHT22;1911;53.768;11.474;2023-02-08T12:58:04;3.40;99.90
3792;DHT22;1911;53.768;11.474;2023-02-08T13:00:31;3.30;99.90
3792;DHT22;1911;53.768;11.474;2023-02-08T13:05:47;3.30;99.90
3792;DHT22;1911;53.768;11.474;2023-02-08T13:08:31;3.20;99.90
3792;DHT22;1911;53.768;11.474;2023-02-08T13:14:22;3.30;99.90
3792;DHT22;1911;53.768;11.474;2023-02-08T13:16:52;3.30;99.90
3792;DHT22;1911;53.768;11.474;2023-02-08T13:19:37;3.30;99.90
3792;DHT22;1911;53.768;11.474;2023-02-08T13:22:08;3.30;99.90
3792;DHT22;1911;53.768;11.474;2023-02-08T13:24:38;3.30;99.90
3792;DHT22;1911;53.768;11.474;2023-02-08T13:27:05;3.30;99.90
3792;DHT22;1911;53.768;11.474;2023-02-08T13:29:33;3.30;99.90
3792;DHT22;1911;53.768;11.474;2023-02-08T13:34:47;3.30;99.90
3792;DHT22;1911;53.768;11.474;2023-02-08T13:37:23;3.40;99.90
3792;DHT22;1911;53.768;11.474;2023-02-08T13:40:04;3.40;99.90
3792;DHT22;1911;53.768;11.474;2023-02-08T13:42:40;3.40;99.90
3792;DHT22;1911;53.768;11.474;2023-02-08T13:45:09;3.30;99.90
3792;DHT22;1911;53.768;11.474;2023-02-08T13:47:48;3.40;99.90
3792;DHT22;1911;53.768;11.474;2023-02-08T13:50:47;3.40;99.90
3792;DHT22;1911;53.768;11.474;2023-02-08T13:53:14;3.30;99.90
3792;DHT22;1911;53.768;11.474;2023-02-08T13:55:59;3.30;99.90
3792;DHT22;1911;53.768;11.474;2023-02-08T13:59:22;3.40;99.90
3792;DHT22;1911;53.768;11.474;2023-02-08T14:01:25;3.40;99.90
3792;DHT22;1911;53.768;11.474;2023-02-08T14:06:46;3.10;99.90
3792;DHT22;1911;53.768;11.474;2023-02-08T14:17:47;2.90;99.90
3792;DHT22;1911;53.768;11.474;2023-02-08T14:20:36;2.80;99.90
3792;DHT22;1911;53.768;11.474;2023-02-08T14:23:21;2.80;99.90
3792;DHT22;1911;53.768;11.474;2023-02-08T14:25:49;2.80;99.90
3792;DHT22;1911;53.768;11.474;2023-02-08T14:28:38;2.80;99.90
3792;DHT22;1911;53.768;11.474;2023-02-08T14:31:08;2.70;99.90
3792;DHT22;1911;53.768;11.474;2023-02-08T14:33:41;2.70;99.90
3792;DHT22;1911;53.768;11.474;2023-02-08T14:36:28;2.60;99.90
3792;DHT22;1911;53.768;11.474;2023-02-08T14:39:25;2.60;99.90
3792;DHT22;1911;53.768;11.474;2023-02-08T14:41:53;2.50;99.90
3792;DHT22;1911;53.768;11.474;2023-02-08T14:50:20;2.40;99.90
3792;DHT22;1911;53.768;11.474;2023-02-08T14:53:00;2.40;99.90
3792;DHT22;1911;53.768;11.474;2023-02-08T14:55:31;2.30;99.90
3792;DHT22;1911;53.768;11.474;2023-02-08T14:58:06;2.30;99.90
3792;DHT22;1911;53.768;11.474;2023-02-08T15:00:35;2.30;99.90
3792;DHT22;1911;53.768;11.474;2023-02-08T15:03:03;2.30;99.90
3792;DHT22;1911;53.768;11.474;2023-02-08T15:05:39;2.30;99.90
3792;DHT22;1911;53.768;11.474;2023-02-08T15:08:06;2.20;99.90
3792;DHT22;1911;53.768;11.474;2023-02-08T15:10:32;2.20;99.90
3792;DHT22;1911;53.768;11.474;2023-02-08T15:13:03;2.20;99.90
3792;DHT22;1911;53.768;11.474;2023-02-08T15:15:37;2.20;99.90
3792;DHT22;1911;53.768;11.474;2023-02-08T15:18:05;2.10;99.90
3792;DHT22;1911;53.768;11.474;2023-02-08T15:20:33;2.10;99.90
3792;DHT22;1911;53.768;11.474;2023-02-08T15:23:05;2.10;99.90
3792;DHT22;1911;53.768;11.474;2023-02-08T15:25:41;2.10;99.90
3792;DHT22;1911;53.768;11.474;2023-02-08T15:28:20;2.10;99.90
3792;DHT22;1911;53.768;11.474;2023-02-08T15:31:06;2.00;99.90
3792;DHT22;1911;53.768;11.474;2023-02-08T15:33:33;2.00;99.90
3792;DHT22;1911;53.768;11.474;2023-02-08T15:36:06;2.00;99.90
3792;DHT22;1911;53.768;11.474;2023-02-08T15:38:34;2.00;99.90
3792;DHT22;1911;53.768;11.474;2023-02-08T15:41:14;1.90;99.90
3792;DHT22;1911;53.768;11.474;2023-02-08T15:43:41;1.90;99.90
3792;DHT22;1911;53.768;11.474;2023-02-08T15:46:23;1.90;99.90
3792;DHT22;1911;53.768;11.474;2023-02-08T15:48:50;1.90;99.90
3792;DHT22;1911;53.768;11.474;2023-02-08T15:51:17;1.80;99.90
3792;DHT22;1911;53.768;11.474;2023-02-08T15:53:46;1.80;99.90
3792;DHT22;1911;53.768;11.474;2023-02-08T15:56:20;1.80;99.90
3792;DHT22;1911;53.768;11.474;2023-02-08T15:58:50;1.80;99.90
3792;DHT22;1911;53.768;11.474;2023-02-08T16:01:20;1.70;99.90
3792;DHT22;1911;53.768;11.474;2023-02-08T16:03:48;1.60;99.90
3792;DHT22;1911;53.768;11.474;2023-02-08T16:06:23;1.60;99.90
3792;DHT22;1911;53.768;11.474;2023-02-08T16:08:50;1.60;99.90
3792;DHT22;1911;53.768;11.474;2023-02-08T16:11:23;1.50;99.90
3792;DHT22;1911;53.768;11.474;2023-02-08T16:13:52;1.50;99.90
3792;DHT22;1911;53.768;11.474;2023-02-08T16:16:25;1.40;99.90
3792;DHT22;1911;53.768;11.474;2023-02-08T16:19:05;1.40;99.90
3792;DHT22;1911;53.768;11.474;2023-02-08T16:21:43;1.40;99.90
3792;DHT22;1911;53.768;11.474;2023-02-08T16:26:44;1.40;99.90
3792;DHT22;1911;53.768;11.474;2023-02-08T16:29:32;1.30;99.90
3792;DHT22;1911;53.768;11.474;2023-02-08T16:31:59;1.30;99.90
3792;DHT22;1911;53.768;11.474;2023-02-08T16:34:30;1.30;99.90
3792;DHT22;1911;53.768;11.474;2023-02-08T16:36:57;1.20;99.90
3792;DHT22;1911;53.768;11.474;2023-02-08T16:39:38;1.20;99.90
3792;DHT22;1911;53.768;11.474;2023-02-08T16:42:50;1.10;99.90
3792;DHT22;1911;53.768;11.474;2023-02-08T16:47:48;1.10;99.90
3792;DHT22;1911;53.768;11.474;2023-02-08T16:50:22;1.10;99.90
3792;DHT22;1911;53.768;11.474;2023-02-08T16:53:09;1.00;99.90
3792;DHT22;1911;53.768;11.474;2023-02-08T16:55:35;1.00;99.90
3792;DHT22;1911;53.768;11.474;2023-02-08T16:58:02;1.00;99.90
3792;DHT22;1911;53.768;11.474;2023-02-08T17:00:31;1.00;99.90
3792;DHT22;1911;53.768;11.474;2023-02-08T17:02:57;0.90;99.90
3792;DHT22;1911;53.768;11.474;2023-02-08T17:05:25;0.90;99.90
3792;DHT22;1911;53.768;11.474;2023-02-08T17:07:51;0.90;99.90
3792;DHT22;1911;53.768;11.474;2023-02-08T17:10:24;0.90;99.90
3792;DHT22;1911;53.768;11.474;2023-02-08T17:12:50;0.80;99.90
3792;DHT22;1911;53.768;11.474;2023-02-08T17:15:18;0.90;99.90
3792;DHT22;1911;53.768;11.474;2023-02-08T17:17:46;0.80;99.90
3792;DHT22;1911;53.768;11.474;2023-02-08T18:31:03;0.20;99.90
3792;DHT22;1911;53.768;11.474;2023-02-08T18:34:09;0.20;99.90
3792;DHT22;1911;53.768;11.474;2023-02-08T18:40:33;0.10;99.90
3792;DHT22;1911;53.768;11.474;2023-02-08T18:43:17;0.10;99.90
3792;DHT22;1911;53.768;11.474;2023-02-08T18:46:15;0.10;99.90
3792;DHT22;1911;53.768;11.474;2023-02-08T19:09:43;-0.10;99.90
3792;DHT22;1911;53.768;11.474;2023-02-08T19:12:48;-0.10;99.90
3792;DHT22;1911;53.768;11.474;2023-02-08T19:15:57;-0.10;99.90
3792;DHT22;1911;53.768;11.474;2023-02-08T19:19:10;-0.20;99.90
3792;DHT22;1911;53.768;11.474;2023-02-08T19:22:12;-0.20;99.90
3792;DHT22;1911;53.768;11.474;2023-02-08T19:25:39;-0.20;99.90
3792;DHT22;1911;53.768;11.474;2023-02-08T19:31:49;-0.20;99.90
3792;DHT22;1911;53.768;11.474;2023-02-08T22:33:59;-0.80;99.90
3792;DHT22;1911;53.768;11.474;2023-02-08T22:36:25;-0.90;99.90
3792;DHT22;1911;53.768;11.474;2023-02-08T22:38:50;-0.90;99.90
3792;DHT22;1911;53.768;11.474;2023-02-08T22:41:16;-0.90;99.90
3792;DHT22;1911;53.768;11.474;2023-02-08T22:43:43;-0.90;99.90
3792;DHT22;1911;53.768;11.474;2023-02-08T22:46:11;-0.80;99.90
3792;DHT22;1911;53.768;11.474;2023-02-08T22:48:37;-0.90;99.90
3792;DHT22;1911;53.768;11.474;2023-02-08T22:51:20;-0.90;99.90
3792;DHT22;1911;53.768;11.474;2023-02-08T22:53:47;-0.90;99.90
3792;DHT22;1911;53.768;11.474;2023-02-08T22:56:16;-0.80;99.90
3792;DHT22;1911;53.768;11.474;2023-02-08T22:58:42;-0.90;99.90
3792;DHT22;1911;53.768;11.474;2023-02-08T23:01:09;-0.90;99.90
3792;DHT22;1911;53.768;11.474;2023-02-08T23:03:36;-0.90;99.90
3792;DHT22;1911;53.768;11.474;2023-02-08T23:06:04;-0.90;99.90
3792;DHT22;1911;53.768;11.474;2023-02-08T23:08:32;-0.90;99.90
3792;DHT22;1911;53.768;11.474;2023-02-08T23:11:00;-0.90;99.90
3792;DHT22;1911;53.768;11.474;2023-02-08T23:13:31;-0.90;99.90
3792;DHT22;1911;53.768;11.474;2023-02-08T23:15:57;-1.00;99.90
3792;DHT22;1911;53.768;11.474;2023-02-08T23:18:25;-1.00;99.90
3792;DHT22;1911;53.768;11.474;2023-02-08T23:20:54;-1.00;99.90
3792;DHT22;1911;53.768;11.474;2023-02-08T23:23:22;-1.00;99.90
3792;DHT22;1911;53.768;11.474;2023-02-08T23:36:17;-1.10;99.90
3792;DHT22;1911;53.768;11.474;2023-02-08T23:46:27;-1.20;99.90
3792;DHT22;1911;53.768;11.474;2023-02-08T23:53:00;-1.20;99.90
